Time;durP1;ratioP1;P1;durP2;ratioP2;P2;SDS_P1;SDS_P2;PMS_P1;PMS_P2;Temp;Humidity;BMP_temperature;BMP_pressure;BME280_temperature;BME280_humidity;BME280_pressure;Samples;Min_cycle;Max_cycle;Signal;HPM_P1;HPM_P2
2021/11/04 00:00:09;;;;;;;3.15;2.75;;;6.40;99.90;;;;;;5009097;28;20206;-75
2021/11/04 00:02:36;;;;;;;3.97;3.35;;;6.40;99.90;;;;;;5008805;28;20721;-75
2021/11/04 00:05:03;;;;;;;3.15;2.85;;;6.40;99.90;;;;;;5008698;28;20209;-75
2021/11/04 00:07:30;;;;;;;2.70;2.50;;;6.50;99.90;;;;;;5008367;28;20233;-76
2021/11/04 00:09:57;;;;;;;4.20;3.15;;;6.50;99.90;;;;;;5008669;28;20202;-75
2021/11/04 00:12:25;;;;;;;3.35;3.05;;;6.50;99.90;;;;;;5008957;28;20198;-75
2021/11/04 00:14:52;;;;;;;3.08;2.53;;;6.50;99.90;;;;;;5008618;28;20206;-76
2021/11/04 00:17:19;;;;;;;3.58;3.00;;;6.50;99.90;;;;;;5008387;28;20223;-75
2021/11/04 00:19:46;;;;;;;4.65;3.15;;;6.50;99.90;;;;;;5008696;28;20674;-75
2021/11/04 00:22:13;;;;;;;3.60;2.95;;;6.60;99.90;;;;;;5008607;28;20249;-75
2021/11/04 00:24:40;;;;;;;3.33;2.53;;;6.60;99.90;;;;;;5008732;28;20202;-76
2021/11/04 00:27:07;;;;;;;3.45;2.70;;;6.60;99.90;;;;;;5007991;28;20737;-76
2021/11/04 00:29:35;;;;;;;2.70;2.50;;;6.60;99.90;;;;;;5008597;28;20213;-75
2021/11/04 00:32:02;;;;;;;3.28;2.97;;;6.60;99.90;;;;;;5008626;28;20206;-75
2021/11/04 00:34:29;;;;;;;3.78;2.53;;;6.60;99.90;;;;;;5008545;28;20206;-75
2021/11/04 00:36:56;;;;;;;4.05;2.55;;;6.60;99.90;;;;;;5007697;28;20241;-75
2021/11/04 00:39:23;;;;;;;2.92;2.30;;;6.60;99.90;;;;;;5008532;28;20210;-73
2021/11/04 00:41:50;;;;;;;2.83;2.33;;;6.60;99.90;;;;;;5008720;28;20229;-73
2021/11/04 00:44:17;;;;;;;1.88;1.63;;;6.60;99.90;;;;;;5008927;28;20206;-73
2021/11/04 00:46:45;;;;;;;1.90;1.80;;;6.60;99.90;;;;;;5008123;28;20619;-73
2021/11/04 00:49:13;;;;;;;2.20;2.00;;;6.60;99.90;;;;;;5008979;28;20301;-73
2021/11/04 00:51:39;;;;;;;3.78;2.40;;;6.60;99.90;;;;;;5008262;28;20570;-73
2021/11/04 00:54:06;;;;;;;2.20;2.00;;;6.50;99.90;;;;;;5008538;28;20219;-73
2021/11/04 00:56:33;;;;;;;2.35;2.00;;;6.50;99.90;;;;;;5007883;28;20609;-73
2021/11/04 00:59:00;;;;;;;2.35;1.95;;;6.50;99.90;;;;;;5008615;28;20214;-73
2021/11/04 01:01:26;;;;;;;2.45;2.25;;;6.50;99.90;;;;;;5009255;28;20222;-73
2021/11/04 01:03:55;;;;;;;1.85;1.75;;;6.50;99.90;;;;;;5008689;28;20206;-73
2021/11/04 01:06:22;;;;;;;2.95;2.15;;;6.50;99.90;;;;;;5009614;28;20230;-73
2021/11/04 01:08:49;;;;;;;2.13;1.92;;;6.50;99.90;;;;;;5008933;28;20237;-73
2021/11/04 01:11:17;;;;;;;2.25;2.05;;;6.50;99.90;;;;;;5008923;28;20198;-73
2021/11/04 01:13:44;;;;;;;2.35;2.15;;;6.50;99.90;;;;;;5007928;28;20198;-73
2021/11/04 01:16:11;;;;;;;2.63;2.42;;;6.50;99.90;;;;;;5007881;28;20230;-73
2021/11/04 01:18:38;;;;;;;2.03;1.70;;;6.50;99.90;;;;;;5008267;28;20251;-73
2021/11/04 01:21:06;;;;;;;2.05;1.80;;;6.40;99.90;;;;;;5007896;28;20206;-75
2021/11/04 01:23:33;;;;;;;1.70;1.58;;;6.40;99.90;;;;;;5082438;23;20244;-94
2021/11/04 01:26:04;;;;;;;2.25;2.05;;;6.40;99.90;;;;;;5077084;28;20216;-92
2021/11/04 01:28:31;;;;;;;2.63;2.00;;;6.50;99.90;;;;;;5054834;23;20379;-69
2021/11/04 01:30:58;;;;;;;2.45;1.70;;;6.50;99.90;;;;;;5030349;28;20208;-68
2021/11/04 01:33:24;;;;;;;1.85;1.73;;;6.50;99.90;;;;;;5030292;28;20202;-68
2021/11/04 01:35:51;;;;;;;1.80;1.67;;;6.50;99.90;;;;;;5029598;28;20225;-67
2021/11/04 01:38:19;;;;;;;2.17;1.90;;;6.60;99.90;;;;;;5029892;28;20198;-69
2021/11/04 01:40:47;;;;;;;2.50;2.10;;;6.60;99.90;;;;;;5030119;28;20614;-69
2021/11/04 01:43:13;;;;;;;1.83;1.70;;;6.60;99.90;;;;;;5029764;28;20230;-67
2021/11/04 01:45:40;;;;;;;4.53;1.83;;;6.60;99.90;;;;;;5029431;28;20713;-68
2021/11/04 01:48:07;;;;;;;4.47;1.88;;;6.60;99.90;;;;;;5029733;28;20205;-69
2021/11/04 01:50:34;;;;;;;1.83;1.67;;;6.60;99.90;;;;;;5017677;28;20210;-68
2021/11/04 01:53:01;;;;;;;4.10;1.65;;;6.60;99.90;;;;;;5010318;28;20198;-69
2021/11/04 01:55:30;;;;;;;3.03;1.60;;;6.70;99.90;;;;;;5009683;28;20206;-68
2021/11/04 01:57:58;;;;;;;1.50;1.40;;;6.70;99.90;;;;;;5009767;28;20205;-68
2021/11/04 02:00:27;;;;;;;1.75;1.50;;;6.70;99.90;;;;;;5009449;28;20214;-68
2021/11/04 02:02:59;;;;;;;2.15;1.80;;;6.70;99.90;;;;;;5009888;28;20233;-69
2021/11/04 02:05:34;;;;;;;2.50;1.40;;;6.70;99.90;;;;;;4990376;28;20199;-68
2021/11/04 02:08:07;;;;;;;1.80;1.50;;;6.70;99.90;;;;;;4990194;28;20206;-68
2021/11/04 02:10:41;;;;;;;1.30;1.20;;;6.60;99.90;;;;;;4993223;28;20674;-69
2021/11/04 02:13:15;;;;;;;1.65;1.55;;;6.60;99.90;;;;;;4993842;28;20671;-68
2021/11/04 02:15:44;;;;;;;2.03;1.60;;;6.60;99.90;;;;;;4993406;28;20732;-68
2021/11/04 02:18:12;;;;;;;1.55;1.45;;;6.60;99.90;;;;;;4994273;28;20233;-68
2021/11/04 02:20:54;;;;;;;1.65;1.40;;;6.60;99.90;;;;;;5025674;28;20671;-68
2021/11/04 02:23:32;;;;;;;1.45;1.35;;;6.70;99.90;;;;;;5025021;28;20214;-68
2021/11/04 02:26:01;;;;;;;3.10;1.60;;;6.70;99.90;;;;;;5012657;28;20599;-68
2021/11/04 02:28:29;;;;;;;2.08;1.80;;;6.70;99.90;;;;;;5013474;28;20217;-69
2021/11/04 02:30:56;;;;;;;1.92;1.60;;;6.60;99.90;;;;;;5013114;28;20206;-69
2021/11/04 02:33:24;;;;;;;5.25;2.17;;;6.60;99.90;;;;;;5013323;28;20213;-67
2021/11/04 02:35:52;;;;;;;1.90;1.80;;;6.60;99.90;;;;;;5012843;28;20230;-69
2021/11/04 02:38:21;;;;;;;2.45;2.25;;;6.60;99.90;;;;;;5013093;28;20261;-68
2021/11/04 02:40:48;;;;;;;2.40;2.00;;;6.60;99.90;;;;;;5013293;28;20210;-67
2021/11/04 02:43:17;;;;;;;2.90;1.95;;;6.60;99.90;;;;;;5012927;28;20222;-69
2021/11/04 02:45:44;;;;;;;2.42;1.70;;;6.60;99.90;;;;;;5012590;28;20230;-67
2021/11/04 02:48:11;;;;;;;1.65;1.55;;;6.60;99.90;;;;;;5013049;28;20203;-69
2021/11/04 02:50:38;;;;;;;2.45;1.95;;;6.60;99.90;;;;;;5013248;28;20198;-67
2021/11/04 02:53:05;;;;;;;3.55;1.98;;;6.60;99.90;;;;;;5013166;28;20209;-68
2021/11/04 02:55:33;;;;;;;1.63;1.40;;;6.60;99.90;;;;;;5012730;28;20217;-69
2021/11/04 02:58:04;;;;;;;1.40;1.30;;;6.50;99.90;;;;;;5012834;28;20213;-69
2021/11/04 03:00:33;;;;;;;1.38;1.27;;;6.50;99.90;;;;;;5012724;28;20213;-67
2021/11/04 03:02:59;;;;;;;1.55;1.40;;;6.40;99.90;;;;;;5013093;28;20233;-68
2021/11/04 03:05:26;;;;;;;1.05;0.93;;;6.40;99.90;;;;;;5012769;28;20211;-69
2021/11/04 03:07:53;;;;;;;1.52;0.90;;;6.30;99.90;;;;;;5012176;28;20206;-69
2021/11/04 03:10:20;;;;;;;3.30;1.23;;;6.30;99.90;;;;;;5012648;28;20670;-67
2021/11/04 03:12:46;;;;;;;2.70;1.40;;;6.20;99.90;;;;;;5013364;28;20226;-68
2021/11/04 03:15:18;;;;;;;1.00;0.90;;;6.20;99.90;;;;;;5031966;28;20205;-68
2021/11/04 03:17:47;;;;;;;1.30;1.20;;;6.20;99.90;;;;;;5031654;28;20615;-68
2021/11/04 03:20:16;;;;;;;2.65;1.40;;;6.10;99.90;;;;;;5031718;28;20221;-67
2021/11/04 03:22:44;;;;;;;2.15;1.00;;;6.10;99.90;;;;;;5032011;28;20222;-67
2021/11/04 03:25:14;;;;;;;1.05;0.95;;;6.10;99.90;;;;;;5029508;28;20568;-68
2021/11/04 03:27:43;;;;;;;1.23;1.13;;;6.10;99.90;;;;;;5031394;28;20220;-67
2021/11/04 03:30:11;;;;;;;1.13;1.00;;;6.00;99.90;;;;;;5031551;28;20664;-69
2021/11/04 03:32:39;;;;;;;1.30;1.17;;;6.00;99.90;;;;;;5031661;28;20635;-68
2021/11/04 03:35:10;;;;;;;1.20;1.05;;;6.00;99.90;;;;;;5031584;28;20400;-68
2021/11/04 03:37:38;;;;;;;0.93;0.88;;;6.00;99.90;;;;;;5030736;28;20237;-69
2021/11/04 03:40:06;;;;;;;0.95;0.85;;;6.00;99.90;;;;;;5031581;28;20210;-68
2021/11/04 03:42:34;;;;;;;1.25;1.05;;;6.00;99.90;;;;;;5031172;28;20225;-69
2021/11/04 03:45:01;;;;;;;1.10;1.00;;;6.00;99.90;;;;;;5031346;28;20208;-68
2021/11/04 03:47:30;;;;;;;1.10;1.00;;;6.00;99.90;;;;;;5030354;28;20633;-69
2021/11/04 03:49:58;;;;;;;1.33;1.23;;;6.00;99.90;;;;;;5031368;28;20672;-68
2021/11/04 03:52:27;;;;;;;2.25;1.13;;;6.00;99.90;;;;;;5030832;28;20198;-69
2021/11/04 03:54:54;;;;;;;1.40;1.30;;;6.00;99.90;;;;;;5031075;28;20616;-67
2021/11/04 03:57:23;;;;;;;1.20;1.10;;;6.00;99.90;;;;;;5030531;28;20222;-68
2021/11/04 03:59:51;;;;;;;1.15;1.02;;;6.00;99.90;;;;;;5031388;28;20576;-69
2021/11/04 04:02:18;;;;;;;1.27;1.10;;;6.00;99.90;;;;;;5031370;28;20221;-69
2021/11/04 04:04:52;;;;;;;1.90;1.25;;;5.90;99.90;;;;;;5031538;28;20673;-68
2021/11/04 04:07:19;;;;;;;1.38;1.27;;;5.90;99.90;;;;;;5030603;28;20244;-68
2021/11/04 04:09:48;;;;;;;1.45;1.35;;;5.90;99.90;;;;;;5031482;28;20198;-68
2021/11/04 04:12:16;;;;;;;1.50;1.40;;;5.90;99.90;;;;;;5031109;28;20204;-68
2021/11/04 04:14:42;;;;;;;1.75;1.30;;;5.90;99.90;;;;;;5031020;28;20205;-68
2021/11/04 04:17:09;;;;;;;2.40;1.27;;;5.90;99.90;;;;;;5026504;28;20225;-69
2021/11/04 04:19:36;;;;;;;1.30;1.20;;;5.80;99.90;;;;;;5011400;28;20218;-68
2021/11/04 04:22:03;;;;;;;1.40;1.30;;;5.80;99.90;;;;;;5011242;28;20579;-68
2021/11/04 04:24:30;;;;;;;1.20;1.00;;;5.90;99.90;;;;;;5010937;28;20198;-69
2021/11/04 04:26:58;;;;;;;3.08;1.45;;;5.90;99.90;;;;;;5010640;28;20625;-67
2021/11/04 04:29:25;;;;;;;1.80;1.37;;;5.80;99.90;;;;;;5010007;28;20881;-68
2021/11/04 04:31:51;;;;;;;1.30;1.20;;;5.90;99.90;;;;;;5010405;28;20461;-69
2021/11/04 04:34:18;;;;;;;1.48;1.20;;;5.80;99.90;;;;;;5008624;28;20673;-69
2021/11/04 04:36:45;;;;;;;2.20;1.40;;;5.80;99.90;;;;;;5003726;28;20226;-69
2021/11/04 04:39:11;;;;;;;1.63;1.30;;;5.80;99.90;;;;;;5007835;28;20567;-68
2021/11/04 04:41:38;;;;;;;1.27;1.17;;;5.70;99.90;;;;;;4999647;28;20199;-69
2021/11/04 04:44:06;;;;;;;1.42;1.33;;;5.70;99.90;;;;;;4999697;28;20218;-68
2021/11/04 04:46:33;;;;;;;1.42;1.20;;;5.70;99.90;;;;;;5000775;28;20210;-68
2021/11/04 04:49:00;;;;;;;1.70;1.60;;;5.70;99.90;;;;;;5002266;28;20675;-68
2021/11/04 04:51:28;;;;;;;2.70;1.30;;;5.70;99.90;;;;;;4999198;28;20197;-69
2021/11/04 04:53:54;;;;;;;1.33;1.10;;;5.60;99.90;;;;;;5004600;28;20852;-68
2021/11/04 04:56:21;;;;;;;1.45;1.30;;;5.50;99.90;;;;;;5002215;28;20217;-68
2021/11/04 04:58:48;;;;;;;1.17;1.05;;;5.50;99.90;;;;;;4995504;28;20693;-69
2021/11/04 05:01:16;;;;;;;1.30;1.15;;;5.50;99.90;;;;;;5007032;28;20195;-69
2021/11/04 05:03:43;;;;;;;1.30;1.15;;;5.50;99.90;;;;;;5006463;28;20218;-69
2021/11/04 05:06:10;;;;;;;1.20;1.10;;;5.50;99.90;;;;;;4997667;28;20712;-69
2021/11/04 05:08:36;;;;;;;1.40;1.20;;;5.50;99.90;;;;;;5000609;28;20190;-68
2021/11/04 05:11:03;;;;;;;1.30;1.20;;;5.50;99.90;;;;;;5002138;28;20206;-69
2021/11/04 05:13:30;;;;;;;1.25;1.10;;;5.50;99.90;;;;;;5006730;28;20201;-69
2021/11/04 05:15:57;;;;;;;1.20;1.10;;;5.50;99.90;;;;;;4999700;28;20238;-68
2021/11/04 05:18:25;;;;;;;1.20;1.10;;;5.40;99.90;;;;;;5001045;28;20207;-68
2021/11/04 05:20:51;;;;;;;2.80;1.30;;;5.40;99.90;;;;;;4999764;28;20206;-67
2021/11/04 05:23:18;;;;;;;1.15;0.93;;;5.40;99.90;;;;;;5000598;28;20211;-68
2021/11/04 05:25:45;;;;;;;1.10;1.00;;;5.40;99.90;;;;;;4999602;28;20234;-67
2021/11/04 05:28:12;;;;;;;1.10;1.00;;;5.40;99.90;;;;;;4995386;28;20207;-67
2021/11/04 05:30:38;;;;;;;1.25;1.15;;;5.40;99.90;;;;;;5007766;28;20206;-67
2021/11/04 05:33:05;;;;;;;1.90;1.13;;;5.40;99.90;;;;;;5010449;28;20209;-66
2021/11/04 05:35:33;;;;;;;1.10;1.00;;;5.40;99.90;;;;;;5007932;28;20217;-68
2021/11/04 05:38:00;;;;;;;1.10;1.00;;;5.40;99.90;;;;;;5009263;28;20609;-67
2021/11/04 05:40:26;;;;;;;1.40;1.30;;;5.40;99.90;;;;;;5010326;28;20214;-67
2021/11/04 05:42:53;;;;;;;2.15;1.20;;;5.40;99.90;;;;;;5010593;28;20215;-68
2021/11/04 05:45:20;;;;;;;1.65;1.27;;;5.40;99.90;;;;;;5013783;28;20592;-66
2021/11/04 05:47:47;;;;;;;1.58;1.20;;;5.40;99.90;;;;;;5013697;28;20213;-68
2021/11/04 05:50:15;;;;;;;1.25;1.15;;;5.40;99.90;;;;;;5013667;28;20213;-68
2021/11/04 05:52:43;;;;;;;1.20;1.10;;;5.40;99.90;;;;;;5014004;28;20301;-68
2021/11/04 05:55:10;;;;;;;1.40;1.10;;;5.40;99.90;;;;;;5013520;28;20662;-69
2021/11/04 05:57:36;;;;;;;1.70;1.60;;;5.40;99.90;;;;;;5013202;28;20236;-68
2021/11/04 06:00:05;;;;;;;1.35;1.25;;;5.30;99.90;;;;;;5013924;28;20209;-68
2021/11/04 06:02:32;;;;;;;1.40;1.30;;;5.30;99.90;;;;;;5013278;28;20589;-68
2021/11/04 06:04:59;;;;;;;1.35;1.25;;;5.30;99.90;;;;;;5013782;28;20210;-68
2021/11/04 06:07:28;;;;;;;1.92;1.20;;;5.30;99.90;;;;;;5012803;28;20238;-67
2021/11/04 06:09:56;;;;;;;1.60;1.50;;;5.30;99.90;;;;;;5012505;28;20272;-67
2021/11/04 06:12:23;;;;;;;1.30;1.20;;;5.40;99.90;;;;;;5032234;28;20233;-68
2021/11/04 06:14:49;;;;;;;3.38;1.45;;;5.40;99.90;;;;;;5029227;28;20198;-68
2021/11/04 06:17:16;;;;;;;1.63;1.30;;;5.40;99.90;;;;;;5012876;28;20234;-68
2021/11/04 06:19:43;;;;;;;3.15;1.67;;;5.30;99.90;;;;;;5013439;28;20209;-67
2021/11/04 06:22:09;;;;;;;1.65;1.45;;;5.40;99.90;;;;;;5013199;28;20210;-68
2021/11/04 06:24:36;;;;;;;1.50;1.20;;;5.40;99.90;;;;;;5013016;28;20226;-68
2021/11/04 06:27:05;;;;;;;2.60;1.52;;;5.40;99.90;;;;;;5012259;28;20233;-66
2021/11/04 06:29:31;;;;;;;1.60;1.50;;;5.40;99.90;;;;;;5012987;28;20207;-67
2021/11/04 06:31:58;;;;;;;1.58;1.48;;;5.40;99.90;;;;;;5013251;28;20203;-68
2021/11/04 06:34:25;;;;;;;1.40;1.30;;;5.40;99.90;;;;;;5012469;28;20210;-67
2021/11/04 06:36:51;;;;;;;1.50;1.40;;;5.40;99.90;;;;;;5012734;28;20229;-67
2021/11/04 06:39:18;;;;;;;1.60;1.50;;;5.40;99.90;;;;;;5012960;28;20206;-68
2021/11/04 06:41:45;;;;;;;1.40;1.30;;;5.40;99.90;;;;;;5013313;28;20206;-68
2021/11/04 06:44:13;;;;;;;1.75;1.30;;;5.40;99.90;;;;;;5012082;28;20225;-67
2021/11/04 06:46:42;;;;;;;1.45;1.35;;;5.40;99.90;;;;;;5012003;28;20226;-68
2021/11/04 06:49:10;;;;;;;1.50;1.40;;;5.40;99.90;;;;;;5013141;28;20218;-66
2021/11/04 06:51:41;;;;;;;1.30;1.20;;;5.40;99.90;;;;;;5012445;28;20206;-67
2021/11/04 06:54:10;;;;;;;1.50;1.40;;;5.50;99.90;;;;;;5012774;28;20225;-68
2021/11/04 06:56:40;;;;;;;2.40;1.48;;;5.50;99.90;;;;;;5011413;28;20610;-66
2021/11/04 06:59:17;;;;;;;3.92;1.60;;;5.50;99.90;;;;;;5012629;28;20681;-67
2021/11/04 07:01:49;;;;;;;1.77;1.65;;;5.50;99.90;;;;;;5012146;28;20660;-67
2021/11/04 07:04:23;;;;;;;1.40;1.30;;;5.50;99.90;;;;;;5012234;28;20250;-68
2021/11/04 07:07:00;;;;;;;1.25;1.15;;;5.50;99.90;;;;;;5012109;28;20223;-68
2021/11/04 07:09:28;;;;;;;1.83;1.33;;;5.50;99.90;;;;;;5012084;28;20209;-68
2021/11/04 07:11:57;;;;;;;1.65;1.40;;;5.50;99.90;;;;;;5012677;28;20209;-68
2021/11/04 07:14:28;;;;;;;2.13;1.50;;;5.50;99.90;;;;;;5012517;28;20272;-68
2021/11/04 07:16:55;;;;;;;1.60;1.50;;;5.60;99.90;;;;;;5011760;28;20698;-68
2021/11/04 07:19:23;;;;;;;1.90;1.40;;;5.60;99.90;;;;;;5012264;28;20206;-68
2021/11/04 07:21:58;;;;;;;1.67;1.58;;;5.50;99.90;;;;;;5012034;28;20230;-67
2021/11/04 07:24:32;;;;;;;1.65;1.55;;;5.50;99.90;;;;;;5069992;23;20352;-74
2021/11/04 07:27:11;;;;;;;1.48;1.27;;;5.50;99.90;;;;;;5050978;28;20955;-74
2021/11/04 07:29:44;;;;;;;1.45;1.23;;;5.60;99.90;;;;;;5046931;28;20197;-74
2021/11/04 07:32:15;;;;;;;1.33;1.17;;;5.60;99.90;;;;;;5037100;28;20199;-75
2021/11/04 07:34:45;;;;;;;2.00;1.80;;;5.70;99.90;;;;;;5042731;28;20193;-74
2021/11/04 07:37:13;;;;;;;1.65;1.40;;;5.70;99.90;;;;;;5039621;28;20217;-75
2021/11/04 07:39:42;;;;;;;3.55;1.45;;;5.70;99.90;;;;;;5047954;28;20209;-74
2021/11/04 07:42:10;;;;;;;5.00;1.83;;;5.70;99.90;;;;;;5036667;28;20201;-76
2021/11/04 07:44:39;;;;;;;1.40;1.30;;;5.70;99.90;;;;;;5039051;28;20213;-75
2021/11/04 07:47:07;;;;;;;1.75;1.52;;;5.70;99.90;;;;;;5039716;28;20220;-76
2021/11/04 07:49:34;;;;;;;1.58;1.17;;;5.60;99.90;;;;;;5033723;28;20205;-76
2021/11/04 07:52:01;;;;;;;2.15;1.58;;;5.60;99.90;;;;;;5031258;28;20249;-76
2021/11/04 07:54:30;;;;;;;2.28;1.58;;;5.60;99.90;;;;;;5037049;28;20189;-76
2021/11/04 07:56:57;;;;;;;1.55;1.45;;;5.70;99.90;;;;;;5051318;28;20225;-76
2021/11/04 07:59:26;;;;;;;2.75;1.75;;;5.60;99.90;;;;;;5051862;28;20201;-76
2021/11/04 08:01:56;;;;;;;3.92;2.08;;;5.70;99.90;;;;;;5051522;28;20254;-76
2021/11/04 08:04:23;;;;;;;2.00;1.52;;;5.70;99.90;;;;;;5051550;28;20282;-76
2021/11/04 08:06:50;;;;;;;2.38;1.60;;;5.70;99.90;;;;;;5050329;28;20217;-76
2021/11/04 08:09:17;;;;;;;2.95;1.55;;;5.70;99.90;;;;;;5052541;28;20201;-75
2021/11/04 08:11:43;;;;;;;2.05;1.85;;;5.60;99.90;;;;;;5052433;28;20205;-75
2021/11/04 08:14:10;;;;;;;2.67;1.95;;;5.60;99.90;;;;;;5051900;28;20247;-76
2021/11/04 08:16:37;;;;;;;2.00;1.63;;;5.60;99.90;;;;;;5050717;28;20228;-76
2021/11/04 08:19:05;;;;;;;2.45;2.25;;;5.60;99.90;;;;;;5051259;28;20212;-76
2021/11/04 08:21:32;;;;;;;1.80;1.70;;;5.60;99.90;;;;;;5051619;28;20209;-75
2021/11/04 08:23:58;;;;;;;1.98;1.38;;;5.60;99.90;;;;;;5050767;28;20229;-76
2021/11/04 08:26:26;;;;;;;2.35;2.15;;;5.50;99.90;;;;;;5047733;28;20704;-76
2021/11/04 08:28:53;;;;;;;2.30;2.10;;;5.60;99.90;;;;;;5046956;28;20580;-74
2021/11/04 08:31:20;;;;;;;2.33;2.13;;;5.60;99.90;;;;;;5033978;28;20669;-74
2021/11/04 08:33:48;;;;;;;2.20;1.90;;;5.70;99.90;;;;;;5030199;28;20557;-74
2021/11/04 08:36:17;;;;;;;2.70;2.20;;;5.70;99.90;;;;;;5028893;28;20252;-74
2021/11/04 08:38:44;;;;;;;2.10;1.90;;;5.70;99.90;;;;;;5029900;28;20681;-74
2021/11/04 08:41:11;;;;;;;2.40;2.10;;;5.60;99.90;;;;;;5029334;28;20206;-74
2021/11/04 08:43:39;;;;;;;2.15;1.95;;;5.70;99.90;;;;;;5029539;28;20696;-74
2021/11/04 08:46:06;;;;;;;3.10;2.38;;;5.70;99.90;;;;;;5028824;28;20295;-74
2021/11/04 08:48:33;;;;;;;3.75;2.05;;;5.70;99.90;;;;;;5029836;28;20643;-74
2021/11/04 08:51:00;;;;;;;2.70;2.10;;;5.70;99.90;;;;;;5029493;28;20673;-74
2021/11/04 08:53:29;;;;;;;2.40;2.20;;;5.80;99.90;;;;;;5029139;28;20675;-74
2021/11/04 08:55:56;;;;;;;2.97;2.70;;;5.80;99.90;;;;;;5027869;28;20226;-74
2021/11/04 08:58:24;;;;;;;3.08;2.60;;;5.80;99.90;;;;;;5028984;28;21007;-74
2021/11/04 09:00:52;;;;;;;2.53;2.33;;;5.70;99.90;;;;;;5029179;28;20284;-74
2021/11/04 09:03:19;;;;;;;2.38;2.17;;;5.80;99.90;;;;;;5029156;28;20194;-74
2021/11/04 09:05:47;;;;;;;2.40;2.20;;;5.80;99.90;;;;;;5028442;28;20288;-74
2021/11/04 09:08:14;;;;;;;2.55;2.20;;;5.80;99.90;;;;;;5029735;28;20202;-73
2021/11/04 09:10:43;;;;;;;2.85;2.40;;;5.80;99.90;;;;;;5029776;28;20224;-73
2021/11/04 09:13:11;;;;;;;3.08;2.30;;;5.80;99.90;;;;;;5029484;28;20233;-74
2021/11/04 09:15:39;;;;;;;2.63;2.10;;;5.80;99.90;;;;;;5029224;28;20221;-74
2021/11/04 09:18:07;;;;;;;2.25;2.03;;;5.80;99.90;;;;;;5029623;28;20252;-74
2021/11/04 09:20:35;;;;;;;3.70;1.98;;;5.90;99.90;;;;;;5033582;28;20295;-74
2021/11/04 09:23:02;;;;;;;2.20;1.77;;;5.90;99.90;;;;;;5033114;28;20208;-73
2021/11/04 09:25:30;;;;;;;2.13;1.92;;;5.90;99.90;;;;;;5033095;28;20226;-74
2021/11/04 09:27:59;;;;;;;1.65;1.55;;;5.90;99.90;;;;;;5032754;28;20201;-74
2021/11/04 09:30:27;;;;;;;2.22;2.03;;;6.00;99.90;;;;;;5033197;28;20201;-74
2021/11/04 09:32:55;;;;;;;1.70;1.60;;;6.00;99.90;;;;;;5032974;28;20301;-74
2021/11/04 09:35:23;;;;;;;2.75;1.90;;;6.00;99.90;;;;;;5032775;28;20255;-74
2021/11/04 09:37:51;;;;;;;2.17;1.75;;;6.00;99.90;;;;;;5032529;28;20206;-75
2021/11/04 09:40:19;;;;;;;2.03;1.70;;;6.00;99.90;;;;;;5033016;28;20217;-74
2021/11/04 09:42:48;;;;;;;2.10;1.90;;;6.10;99.90;;;;;;5032986;28;20202;-74
2021/11/04 09:45:16;;;;;;;1.48;1.38;;;6.10;99.90;;;;;;5031579;28;20232;-74
2021/11/04 09:47:43;;;;;;;2.60;2.40;;;6.00;99.90;;;;;;5032107;28;20289;-76
2021/11/04 09:50:12;;;;;;;2.35;1.30;;;6.00;99.90;;;;;;5043604;28;20201;-74
2021/11/04 09:52:41;;;;;;;3.35;1.67;;;6.00;99.90;;;;;;5052350;28;20212;-76
2021/11/04 09:55:11;;;;;;;1.50;1.40;;;6.00;99.90;;;;;;5052052;28;20235;-76
2021/11/04 09:57:41;;;;;;;2.22;1.40;;;6.00;99.90;;;;;;5052492;28;20229;-76
2021/11/04 10:00:10;;;;;;;2.55;2.35;;;6.00;99.90;;;;;;5039848;28;20205;-75
2021/11/04 10:02:39;;;;;;;2.75;1.30;;;6.00;99.90;;;;;;5032801;28;20210;-75
2021/11/04 10:05:07;;;;;;;3.15;1.85;;;6.00;99.90;;;;;;5031575;28;20222;-76
2021/11/04 10:07:42;;;;;;;1.60;1.40;;;5.90;99.90;;;;;;5032286;28;20604;-76
2021/11/04 10:10:09;;;;;;;1.92;1.52;;;6.00;99.90;;;;;;5032727;28;20212;-76
2021/11/04 10:12:36;;;;;;;1.25;1.15;;;6.00;99.90;;;;;;5030023;28;20285;-76
2021/11/04 10:15:13;;;;;;;1.35;1.20;;;6.00;99.90;;;;;;5032653;28;20567;-76
2021/11/04 10:17:41;;;;;;;1.45;1.00;;;6.00;99.90;;;;;;5033047;28;20206;-75
2021/11/04 10:20:19;;;;;;;1.15;1.05;;;6.00;99.90;;;;;;5033382;28;20213;-76
2021/11/04 10:22:59;;;;;;;1.45;1.20;;;6.00;99.90;;;;;;5033316;28;20213;-75
2021/11/04 10:25:27;;;;;;;1.50;1.33;;;6.00;99.90;;;;;;5033329;28;20229;-75
2021/11/04 10:27:54;;;;;;;1.30;1.20;;;6.10;99.90;;;;;;5032629;28;20206;-75
2021/11/04 10:30:36;;;;;;;1.33;1.20;;;6.10;99.90;;;;;;5032429;28;20209;-76
2021/11/04 10:33:19;;;;;;;2.17;1.45;;;6.20;99.90;;;;;;5033038;28;20210;-76
2021/11/04 10:35:54;;;;;;;2.28;1.00;;;6.20;99.90;;;;;;5032802;28;20246;-75
2021/11/04 10:38:20;;;;;;;1.40;1.30;;;6.30;99.90;;;;;;5033496;28;20208;-75
2021/11/04 10:40:50;;;;;;;2.55;1.25;;;6.30;99.90;;;;;;5032959;28;20202;-75
2021/11/04 10:43:16;;;;;;;2.45;1.05;;;6.40;99.90;;;;;;5033128;28;20669;-75
2021/11/04 10:45:43;;;;;;;1.27;1.10;;;6.40;99.90;;;;;;5032410;28;20764;-75
2021/11/04 10:48:22;;;;;;;1.40;1.20;;;6.50;99.90;;;;;;5032924;28;20197;-75
2021/11/04 10:50:50;;;;;;;1.30;1.00;;;6.40;99.90;;;;;;5032755;28;20208;-75
2021/11/04 10:53:21;;;;;;;1.40;1.25;;;6.40;99.90;;;;;;5032755;28;20229;-75
2021/11/04 10:55:48;;;;;;;1.52;0.95;;;6.40;99.90;;;;;;5033256;28;20222;-75
2021/11/04 10:58:30;;;;;;;2.10;1.10;;;6.50;99.90;;;;;;5031868;28;20209;-75
2021/11/04 11:00:58;;;;;;;1.40;1.20;;;6.50;99.90;;;;;;5032258;28;20252;-75
2021/11/04 11:03:27;;;;;;;2.65;2.45;;;6.60;99.90;;;;;;5031800;28;20206;-74
2021/11/04 11:05:58;;;;;;;3.05;2.60;;;6.50;99.90;;;;;;5031778;28;20226;-74
2021/11/04 11:08:27;;;;;;;4.10;3.08;;;6.50;99.90;;;;;;5032547;28;20282;-73
2021/11/04 11:10:55;;;;;;;3.25;2.70;;;6.50;99.90;;;;;;5032523;28;20233;-73
2021/11/04 11:13:21;;;;;;;2.60;2.33;;;6.60;99.90;;;;;;5037022;28;20630;-75
2021/11/04 11:15:52;;;;;;;2.35;2.13;;;6.60;99.90;;;;;;5051763;28;20236;-75
2021/11/04 11:18:22;;;;;;;3.90;1.83;;;6.60;99.90;;;;;;5052641;28;20200;-74
2021/11/04 11:20:51;;;;;;;1.95;1.73;;;6.60;99.90;;;;;;5025168;28;20205;-75
2021/11/04 11:23:20;;;;;;;1.63;1.52;;;6.50;99.90;;;;;;5039345;28;20676;-75
2021/11/04 11:25:50;;;;;;;2.10;1.50;;;6.50;99.90;;;;;;5050372;28;20221;-75
2021/11/04 11:28:18;;;;;;;3.20;1.75;;;6.50;99.90;;;;;;5051361;28;20208;-76
2021/11/04 11:31:21;;;;;;;2.65;2.10;;;6.50;99.90;;;;;;5051464;28;20201;-75
2021/11/04 11:33:50;;;;;;;1.95;1.75;;;6.50;99.90;;;;;;5047325;28;20291;-75
2021/11/04 11:36:20;;;;;;;4.80;2.03;;;6.50;99.90;;;;;;5051682;28;20592;-75
2021/11/04 11:39:15;;;;;;;3.58;2.78;;;6.40;99.90;;;;;;5051199;28;20208;-75
2021/11/04 11:42:21;;;;;;;2.42;2.22;;;6.40;99.90;;;;;;5051329;28;20201;-75
2021/11/04 11:44:54;;;;;;;4.00;2.90;;;6.40;99.90;;;;;;5010928;28;20231;-75
2021/11/04 11:47:22;;;;;;;3.88;2.90;;;6.30;99.90;;;;;;5030945;28;20228;-75
2021/11/04 11:50:09;;;;;;;3.55;3.25;;;6.30;99.90;;;;;;5030660;28;20202;-75
2021/11/04 11:52:47;;;;;;;4.32;3.92;;;6.20;99.90;;;;;;5031466;28;20197;-75
2021/11/04 11:55:16;;;;;;;4.20;3.50;;;6.30;99.90;;;;;;5031267;28;20675;-75
2021/11/04 11:58:33;;;;;;;4.20;3.08;;;6.30;99.90;;;;;;5030777;28;20205;-75
2021/11/04 12:01:07;;;;;;;3.88;3.30;;;6.40;99.90;;;;;;4950424;28;20267;-75
2021/11/04 12:03:57;;;;;;;3.75;3.45;;;6.40;99.90;;;;;;5016435;28;20292;-75
2021/11/04 12:06:53;;;;;;;5.38;3.63;;;6.50;99.90;;;;;;5027833;28;20705;-75
2021/11/04 12:09:47;;;;;;;6.10;5.03;;;6.60;99.90;;;;;;5030775;28;20217;-75
2021/11/04 12:12:44;;;;;;;4.45;4.05;;;6.60;99.90;;;;;;5010297;28;20214;-74
2021/11/04 12:15:11;;;;;;;4.93;4.50;;;6.60;99.90;;;;;;5031085;28;20280;-72
2021/11/04 12:17:39;;;;;;;4.78;4.28;;;6.70;99.90;;;;;;5029790;28;20306;-75
2021/11/04 12:20:08;;;;;;;4.40;4.00;;;6.70;99.90;;;;;;5029240;28;20729;-75
2021/11/04 12:22:38;;;;;;;4.70;4.18;;;6.80;99.90;;;;;;5027237;28;20217;-75
2021/11/04 12:25:07;;;;;;;7.15;4.65;;;6.80;99.90;;;;;;5030020;28;20707;-74
2021/11/04 12:27:35;;;;;;;6.80;5.65;;;6.90;99.90;;;;;;5028882;28;20217;-75
2021/11/04 12:30:15;;;;;;;5.35;4.85;;;6.90;99.90;;;;;;5029642;28;20197;-75
2021/11/04 12:32:44;;;;;;;6.05;4.50;;;7.00;99.90;;;;;;5029519;28;20205;-75
2021/11/04 12:35:12;;;;;;;5.65;5.10;;;7.10;99.90;;;;;;5030248;28;20260;-75
2021/11/04 12:37:39;;;;;;;6.50;5.20;;;7.10;99.90;;;;;;5029898;28;20217;-75
2021/11/04 12:40:08;;;;;;;5.40;4.90;;;7.10;99.90;;;;;;5029178;28;20581;-75
2021/11/04 12:42:35;;;;;;;4.78;4.32;;;7.10;99.90;;;;;;5033627;28;20205;-75
2021/11/04 12:45:02;;;;;;;5.85;5.13;;;7.00;99.90;;;;;;5028120;28;20225;-75
2021/11/04 12:47:30;;;;;;;5.15;4.65;;;7.10;99.90;;;;;;5041692;28;20331;-74
2021/11/04 12:49:59;;;;;;;5.50;5.00;;;7.10;99.90;;;;;;5046208;28;20196;-72
2021/11/04 12:52:28;;;;;;;5.15;4.43;;;7.10;99.90;;;;;;5048477;28;20209;-75
2021/11/04 12:54:56;;;;;;;5.15;4.28;;;7.10;99.90;;;;;;5048578;28;20270;-75
2021/11/04 12:57:24;;;;;;;5.70;4.50;;;7.10;99.90;;;;;;5048549;28;20256;-75
2021/11/04 12:59:54;;;;;;;5.10;4.60;;;7.10;99.90;;;;;;5048628;28;20205;-75
2021/11/04 13:02:25;;;;;;;4.93;4.43;;;7.20;99.90;;;;;;5037367;28;20569;-76
2021/11/04 13:04:54;;;;;;;6.72;4.28;;;7.30;99.90;;;;;;5028390;28;20613;-75
2021/11/04 13:07:24;;;;;;;4.38;3.97;;;7.30;99.90;;;;;;5027981;28;20233;-75